Time;durP1;ratioP1;P1;durP2;ratioP2;P2;SDS_P1;SDS_P2;PMS_P1;PMS_P2;Temp;Humidity;BMP_temperature;BMP_pressure;BME280_temperature;BME280_humidity;BME280_pressure;Samples;Min_cycle;Max_cycle;Signal;HPM_P1;HPM_P2
2023/05/02 00:00:27;;;;;;;8.98;6.30;;;17.40;63.60;;;;;;5018788;28;20033;-77
2023/05/02 00:02:53;;;;;;;7.95;6.05;;;17.30;63.60;;;;;;5026065;28;20390;-77
2023/05/02 00:05:19;;;;;;;8.20;5.70;;;17.30;63.60;;;;;;5022686;28;20018;-77
2023/05/02 00:07:45;;;;;;;8.85;6.18;;;17.30;63.70;;;;;;5026480;28;20107;-77
2023/05/02 00:10:11;;;;;;;8.77;6.22;;;17.30;63.70;;;;;;5038478;28;20041;-77
2023/05/02 00:12:37;;;;;;;8.05;6.00;;;17.20;63.70;;;;;;5023503;28;20033;-77
2023/05/02 00:15:04;;;;;;;7.38;5.57;;;17.20;63.80;;;;;;5009279;28;20029;-77
2023/05/02 00:17:30;;;;;;;7.65;5.30;;;17.20;63.80;;;;;;5008884;28;20030;-77
2023/05/02 00:19:56;;;;;;;8.10;5.82;;;17.20;63.80;;;;;;4992916;28;20052;-77
2023/05/02 00:22:22;;;;;;;7.35;5.28;;;17.10;63.80;;;;;;5041913;28;20421;-78
2023/05/02 00:24:47;;;;;;;7.63;5.40;;;17.10;63.80;;;;;;5008706;28;20021;-78
2023/05/02 00:27:13;;;;;;;7.68;5.80;;;17.10;64.10;;;;;;5009183;28;20437;-78
2023/05/02 00:29:40;;;;;;;7.47;5.43;;;17.10;63.90;;;;;;5024690;28;20033;-77
2023/05/02 00:32:06;;;;;;;7.55;5.45;;;17.00;63.90;;;;;;5012308;28;20053;-81
2023/05/02 00:34:35;;;;;;;8.15;4.75;;;17.00;64.00;;;;;;5017522;28;20045;-81
2023/05/02 00:37:01;;;;;;;7.35;5.45;;;17.00;64.10;;;;;;5033043;28;20041;-81
2023/05/02 00:39:26;;;;;;;7.30;5.20;;;17.00;64.10;;;;;;4984066;28;20041;-80
2023/05/02 00:41:57;;;;;;;8.05;5.75;;;17.00;64.10;;;;;;5032814;28;20124;-80
2023/05/02 00:44:23;;;;;;;6.70;5.05;;;16.90;64.10;;;;;;5016953;28;20036;-80
2023/05/02 00:46:49;;;;;;;7.53;5.18;;;16.90;64.10;;;;;;5000593;28;20470;-80
2023/05/02 00:49:15;;;;;;;6.68;4.93;;;16.90;64.20;;;;;;5032463;28;20044;-80
2023/05/02 00:51:42;;;;;;;7.38;5.45;;;16.90;64.40;;;;;;5034507;28;20033;-82
2023/05/02 00:54:08;;;;;;;6.88;4.43;;;16.80;64.10;;;;;;5036013;28;20021;-82
2023/05/02 00:56:34;;;;;;;6.88;4.88;;;16.80;64.30;;;;;;5034402;28;20171;-81
2023/05/02 00:59:00;;;;;;;7.70;4.85;;;16.80;64.30;;;;;;5034782;28;20048;-81
2023/05/02 01:01:41;;;;;;;5.97;4.32;;;16.80;64.40;;;;;;4984337;28;20083;-81
2023/05/02 01:04:31;;;;;;;7.63;4.85;;;16.80;64.30;;;;;;5032739;28;20040;-81
2023/05/02 01:07:30;;;;;;;6.70;4.72;;;16.70;64.40;;;;;;5016383;28;20044;-81
2023/05/02 01:10:08;;;;;;;6.57;4.30;;;16.70;64.40;;;;;;5033458;28;20044;-80
2023/05/02 01:13:08;;;;;;;7.32;5.00;;;16.70;64.40;;;;;;5032754;28;20187;-80
2023/05/02 01:15:37;;;;;;;7.18;4.75;;;16.70;64.50;;;;;;5000606;28;20042;-80
2023/05/02 01:18:05;;;;;;;6.78;4.68;;;16.60;64.40;;;;;;5032036;28;20025;-81
2023/05/02 01:20:38;;;;;;;6.18;4.63;;;16.60;64.40;;;;;;5015628;28;20069;-81
2023/05/02 01:23:19;;;;;;;6.60;4.63;;;16.60;64.50;;;;;;5032667;28;20040;-81
2023/05/02 01:26:01;;;;;;;7.00;5.10;;;16.60;64.60;;;;;;5032684;28;20033;-81
2023/05/02 01:28:31;;;;;;;6.25;4.53;;;16.50;64.60;;;;;;5032370;28;20079;-79
2023/05/02 01:30:58;;;;;;;6.47;4.57;;;16.50;64.60;;;;;;5032376;28;20045;-80
2023/05/02 01:33:26;;;;;;;5.30;3.88;;;16.50;64.60;;;;;;5033115;28;20046;-81
2023/05/02 01:35:53;;;;;;;6.00;4.38;;;16.50;64.60;;;;;;5032052;28;20034;-81
2023/05/02 01:38:21;;;;;;;6.40;4.65;;;16.50;64.70;;;;;;5032434;28;20083;-81
2023/05/02 01:40:50;;;;;;;6.97;4.90;;;16.50;64.70;;;;;;5016698;28;20029;-79
2023/05/02 01:43:19;;;;;;;5.90;4.35;;;16.50;64.70;;;;;;5016024;28;20031;-80
2023/05/02 01:45:50;;;;;;;7.00;5.05;;;16.40;64.70;;;;;;5032852;28;20117;-81
2023/05/02 01:48:19;;;;;;;6.65;4.88;;;16.40;64.70;;;;;;5032112;28;20021;-81
2023/05/02 01:50:46;;;;;;;6.53;4.70;;;16.40;64.80;;;;;;5032544;28;20057;-80
2023/05/02 01:53:14;;;;;;;6.65;4.70;;;16.40;64.80;;;;;;5016927;28;20041;-80
2023/05/02 01:55:43;;;;;;;6.75;4.65;;;16.40;64.80;;;;;;5016444;28;20077;-80
2023/05/02 01:58:13;;;;;;;6.97;4.18;;;16.40;64.90;;;;;;5019447;28;20029;-80
2023/05/02 02:00:40;;;;;;;6.70;4.57;;;16.30;64.90;;;;;;5018448;28;20067;-82
2023/05/02 02:03:08;;;;;;;6.15;4.78;;;16.30;64.80;;;;;;5037855;28;20033;-80
2023/05/02 02:05:35;;;;;;;6.85;4.93;;;16.30;65.00;;;;;;5019727;28;20112;-79
2023/05/02 02:08:03;;;;;;;7.15;4.55;;;16.30;64.80;;;;;;5035906;28;20120;-80
2023/05/02 02:10:34;;;;;;;8.45;5.13;;;16.30;64.90;;;;;;4987195;28;20049;-81
2023/05/02 02:13:10;;;;;;;6.15;4.35;;;16.30;64.90;;;;;;5035820;28;20095;-81
2023/05/02 02:15:40;;;;;;;6.30;4.43;;;16.30;65.00;;;;;;5020055;28;20025;-81
2023/05/02 02:18:13;;;;;;;6.50;4.53;;;16.20;64.90;;;;;;5035857;28;20110;-81
2023/05/02 02:20:43;;;;;;;6.13;4.20;;;16.20;65.00;;;;;;5019614;28;20044;-81
2023/05/02 02:23:10;;;;;;;6.70;4.72;;;16.20;65.00;;;;;;5036238;28;20032;-81
2023/05/02 02:25:37;;;;;;;5.78;4.35;;;16.20;65.00;;;;;;5019607;28;20073;-81
2023/05/02 02:28:03;;;;;;;6.80;4.80;;;16.20;65.10;;;;;;5019426;28;20030;-81
2023/05/02 02:30:29;;;;;;;5.78;4.22;;;16.20;65.10;;;;;;5019516;28;20034;-80
2023/05/02 02:32:55;;;;;;;5.45;3.58;;;16.10;65.10;;;;;;5003101;28;20402;-81
2023/05/02 02:35:21;;;;;;;4.88;3.40;;;16.10;65.10;;;;;;5003366;28;20496;-82
2023/05/02 02:38:01;;;;;;;5.60;3.75;;;16.20;65.20;;;;;;5019344;28;20532;-82
2023/05/02 02:41:05;;;;;;;5.47;3.83;;;16.20;65.20;;;;;;5035842;28;20057;-81
2023/05/02 02:43:58;;;;;;;4.78;2.95;;;16.10;65.20;;;;;;5027174;28;20073;-79
2023/05/02 02:46:42;;;;;;;4.07;2.65;;;16.10;65.20;;;;;;5023837;28;20025;-80
2023/05/02 02:49:38;;;;;;;4.13;3.00;;;16.10;65.20;;;;;;5024261;28;20037;-81
2023/05/02 02:52:18;;;;;;;4.53;2.70;;;16.10;65.30;;;;;;5039432;28;20056;-81
2023/05/02 02:54:48;;;;;;;4.88;3.03;;;16.10;65.20;;;;;;5038839;28;20038;-80
2023/05/02 02:57:21;;;;;;;3.88;2.42;;;16.00;65.20;;;;;;5037836;28;20029;-81
2023/05/02 03:00:05;;;;;;;4.65;2.58;;;16.00;65.30;;;;;;5036373;28;20059;-81
2023/05/02 03:02:32;;;;;;;3.72;2.47;;;16.00;65.30;;;;;;5037882;28;20110;-81
2023/05/02 03:05:01;;;;;;;2.92;2.03;;;16.00;65.30;;;;;;5038120;28;20056;-80
2023/05/02 03:07:27;;;;;;;4.28;2.20;;;16.00;65.30;;;;;;5039676;28;20036;-80
2023/05/02 03:09:54;;;;;;;4.35;2.83;;;16.00;65.40;;;;;;5011233;28;20041;-82
2023/05/02 03:12:22;;;;;;;3.58;1.95;;;15.90;65.30;;;;;;5040229;28;20129;-80
2023/05/02 03:14:49;;;;;;;2.75;2.03;;;15.90;65.30;;;;;;5039888;28;20128;-79
2023/05/02 03:17:16;;;;;;;3.38;2.35;;;15.90;65.30;;;;;;5037433;28;20116;-80
2023/05/02 03:19:42;;;;;;;5.00;2.13;;;15.90;65.30;;;;;;5020078;28;20057;-81
2023/05/02 03:22:08;;;;;;;4.53;2.10;;;15.90;65.30;;;;;;5018927;28;20040;-79
2023/05/02 03:24:35;;;;;;;3.28;1.90;;;15.90;65.40;;;;;;5018513;28;20176;-79
2023/05/02 03:27:02;;;;;;;3.67;1.90;;;15.90;65.50;;;;;;4985784;28;20021;-79
2023/05/02 03:29:33;;;;;;;2.55;1.73;;;15.80;65.40;;;;;;5019695;28;20037;-80
2023/05/02 03:32:00;;;;;;;2.75;1.80;;;15.80;65.40;;;;;;5001201;28;20445;-80
2023/05/02 03:34:26;;;;;;;3.97;1.83;;;15.80;65.40;;;;;;5018323;28;20034;-80
2023/05/02 03:36:52;;;;;;;3.90;1.92;;;15.80;65.40;;;;;;5017846;28;20086;-80
2023/05/02 03:39:19;;;;;;;3.08;1.70;;;15.70;65.40;;;;;;5034496;28;20052;-80
2023/05/02 03:41:45;;;;;;;2.75;1.70;;;15.70;65.40;;;;;;5018689;28;20037;-81
2023/05/02 03:44:15;;;;;;;3.22;1.80;;;15.70;65.50;;;;;;5035760;28;20034;-80
2023/05/02 03:46:42;;;;;;;2.35;1.60;;;15.70;65.50;;;;;;5017867;28;20036;-81
2023/05/02 03:49:10;;;;;;;2.88;1.70;;;15.70;65.50;;;;;;5018175;28;20470;-80
2023/05/02 03:51:39;;;;;;;3.95;1.65;;;15.70;65.60;;;;;;5034578;28;20044;-81
2023/05/02 03:54:05;;;;;;;3.22;1.50;;;15.60;65.50;;;;;;5017635;28;20087;-80
2023/05/02 03:56:32;;;;;;;2.80;1.45;;;15.60;65.50;;;;;;5017785;28;20034;-80
2023/05/02 03:59:13;;;;;;;3.13;1.50;;;15.60;65.60;;;;;;5020324;28;20061;-81
2023/05/02 04:01:38;;;;;;;2.22;1.30;;;15.50;65.50;;;;;;5017743;28;20034;-81
2023/05/02 04:04:05;;;;;;;2.15;1.48;;;15.60;65.60;;;;;;5017819;28;20116;-81
2023/05/02 04:06:35;;;;;;;2.05;1.42;;;15.50;65.60;;;;;;5035328;28;20518;-80
2023/05/02 04:09:04;;;;;;;1.73;1.30;;;15.50;65.60;;;;;;5033995;28;20041;-80
2023/05/02 04:11:50;;;;;;;2.30;1.30;;;15.50;65.60;;;;;;5019708;28;20083;-80
2023/05/02 04:14:17;;;;;;;1.77;1.40;;;15.40;65.50;;;;;;5001610;28;20052;-80
2023/05/02 04:16:50;;;;;;;2.08;1.27;;;15.40;65.60;;;;;;5017106;28;20617;-80
2023/05/02 04:19:21;;;;;;;1.80;1.45;;;15.40;65.60;;;;;;5018268;28;20072;-80
2023/05/02 04:21:47;;;;;;;2.00;1.50;;;15.40;65.70;;;;;;5017020;28;20034;-80
2023/05/02 04:24:14;;;;;;;1.95;1.40;;;15.40;65.70;;;;;;4985211;28;20100;-81
2023/05/02 04:26:40;;;;;;;1.85;1.23;;;15.30;65.70;;;;;;5038937;28;20554;-81
2023/05/02 04:29:09;;;;;;;1.85;1.20;;;15.30;65.70;;;;;;5034830;28;20043;-81
2023/05/02 04:31:35;;;;;;;2.13;1.30;;;15.30;65.60;;;;;;5033423;28;20425;-81
2023/05/02 04:34:03;;;;;;;3.03;1.40;;;15.30;65.60;;;;;;5034092;28;20028;-80
2023/05/02 04:36:34;;;;;;;1.70;1.20;;;15.20;65.60;;;;;;5034156;28;20104;-81
2023/05/02 04:39:00;;;;;;;2.47;1.40;;;15.30;65.70;;;;;;5001806;28;20053;-81
2023/05/02 04:41:27;;;;;;;1.88;1.33;;;15.20;65.70;;;;;;5033429;28;20374;-81
2023/05/02 04:43:58;;;;;;;2.28;1.27;;;15.20;65.70;;;;;;5017456;28;20037;-79
2023/05/02 04:46:24;;;;;;;1.48;1.20;;;15.20;65.70;;;;;;5033890;28;20143;-79
2023/05/02 04:48:50;;;;;;;1.63;1.20;;;15.20;65.70;;;;;;5033147;28;20025;-78
2023/05/02 04:51:16;;;;;;;2.70;1.35;;;15.10;65.60;;;;;;5000498;28;20030;-79
2023/05/02 04:53:43;;;;;;;1.98;1.20;;;15.10;65.60;;;;;;5033501;28;20474;-80
2023/05/02 04:56:10;;;;;;;2.38;1.40;;;15.10;65.60;;;;;;5017908;28;20034;-80
2023/05/02 04:58:37;;;;;;;1.88;1.23;;;15.10;65.60;;;;;;5033157;28;20030;-80
2023/05/02 05:01:06;;;;;;;1.30;1.20;;;15.10;65.60;;;;;;5016864;28;20043;-79
2023/05/02 05:03:33;;;;;;;5.07;1.67;;;15.00;65.60;;;;;;5016456;28;20044;-79
2023/05/02 05:05:59;;;;;;;1.30;1.20;;;15.00;65.60;;;;;;5000098;28;20038;-80
2023/05/02 05:08:26;;;;;;;1.25;1.15;;;15.00;65.60;;;;;;5033210;28;20023;-80
2023/05/02 05:10:52;;;;;;;2.78;1.52;;;15.00;65.60;;;;;;5000895;28;20037;-83
2023/05/02 05:13:19;;;;;;;1.30;1.20;;;15.00;65.60;;;;;;5033969;28;20052;-81
2023/05/02 05:15:47;;;;;;;1.98;1.35;;;15.00;65.60;;;;;;5016482;28;20022;-79
2023/05/02 05:18:15;;;;;;;1.27;1.17;;;14.90;65.50;;;;;;4984980;28;20470;-79
2023/05/02 05:20:40;;;;;;;1.35;1.23;;;14.90;65.50;;;;;;5034349;28;20033;-78
2023/05/02 05:23:07;;;;;;;3.25;1.42;;;14.90;65.60;;;;;;5002810;28;20026;-78
2023/05/02 05:25:33;;;;;;;3.05;1.38;;;14.90;65.50;;;;;;5022854;28;20033;-79
2023/05/02 05:27:59;;;;;;;2.08;1.27;;;14.90;65.50;;;;;;5023581;28;20359;-77
2023/05/02 05:30:26;;;;;;;3.38;1.20;;;14.90;65.40;;;;;;5019373;28;20434;-79
2023/05/02 05:32:52;;;;;;;1.77;1.05;;;14.90;65.40;;;;;;5032759;28;20054;-79
2023/05/02 05:35:18;;;;;;;1.30;1.20;;;14.90;65.40;;;;;;5015583;28;20049;-79
2023/05/02 05:37:45;;;;;;;2.33;1.30;;;14.80;65.30;;;;;;5000193;28;20041;-81
2023/05/02 05:40:17;;;;;;;2.47;1.20;;;14.90;65.40;;;;;;5016883;28;20065;-81
2023/05/02 05:42:47;;;;;;;1.23;1.05;;;14.80;65.30;;;;;;5016940;28;20041;-79
2023/05/02 05:45:20;;;;;;;3.15;1.50;;;14.80;65.20;;;;;;5017279;28;20034;-81
2023/05/02 05:47:45;;;;;;;2.65;1.40;;;14.80;65.20;;;;;;5016383;28;20406;-81
2023/05/02 05:50:12;;;;;;;1.63;1.30;;;14.80;65.30;;;;;;5015884;28;20057;-77
2023/05/02 05:52:38;;;;;;;2.95;1.65;;;14.80;65.30;;;;;;5016007;28;20088;-79
2023/05/02 05:55:05;;;;;;;2.72;1.52;;;14.80;65.30;;;;;;5015602;28;20030;-80
2023/05/02 05:57:35;;;;;;;3.97;1.50;;;14.80;65.30;;;;;;5032169;28;20522;-80
2023/05/02 06:00:01;;;;;;;2.13;1.30;;;14.80;65.30;;;;;;5031894;28;20082;-80
2023/05/02 06:02:27;;;;;;;2.50;1.48;;;14.80;65.30;;;;;;5016489;28;20022;-79
2023/05/02 06:04:52;;;;;;;2.50;1.45;;;14.70;65.30;;;;;;5015533;28;20025;-79
2023/05/02 06:07:21;;;;;;;4.25;1.30;;;14.70;65.30;;;;;;5031931;28;20064;-80
2023/05/02 06:09:47;;;;;;;1.92;1.23;;;14.70;65.20;;;;;;4999815;28;20065;-79
2023/05/02 06:12:15;;;;;;;1.77;1.38;;;14.70;65.20;;;;;;4999627;28;20040;-79
2023/05/02 06:14:42;;;;;;;1.83;1.35;;;14.70;65.20;;;;;;5016220;28;20033;-80
2023/05/02 06:17:08;;;;;;;2.30;1.33;;;14.70;65.20;;;;;;4983741;28;20437;-80
2023/05/02 06:19:34;;;;;;;2.28;1.25;;;14.70;65.20;;;;;;5015499;28;20077;-80
2023/05/02 06:21:59;;;;;;;1.63;1.25;;;14.70;65.20;;;;;;5032207;28;20030;-81
2023/05/02 06:24:25;;;;;;;3.90;1.70;;;14.70;65.20;;;;;;5016504;28;20360;-79
2023/05/02 06:26:51;;;;;;;2.08;1.25;;;14.70;65.20;;;;;;5015593;28;20025;-80
2023/05/02 06:29:17;;;;;;;1.35;1.17;;;14.70;65.20;;;;;;5031535;28;20065;-81
2023/05/02 06:31:43;;;;;;;3.72;1.60;;;14.70;65.20;;;;;;5032404;28;20053;-80
2023/05/02 06:34:12;;;;;;;2.40;1.30;;;14.60;65.10;;;;;;4998856;28;20489;-84
2023/05/02 06:36:37;;;;;;;4.75;1.63;;;14.70;65.20;;;;;;5015524;28;20096;-80
2023/05/02 06:39:03;;;;;;;3.00;1.38;;;14.60;65.20;;;;;;5031739;28;20033;-83
2023/05/02 06:41:30;;;;;;;2.67;1.58;;;14.60;65.20;;;;;;5031436;28;20501;-80
2023/05/02 06:43:56;;;;;;;2.22;1.40;;;14.70;65.20;;;;;;5015418;28;20037;-81
2023/05/02 06:46:22;;;;;;;3.25;1.50;;;14.60;65.20;;;;;;5015026;28;20040;-80
2023/05/02 06:48:48;;;;;;;2.88;1.52;;;14.60;65.20;;;;;;5033281;28;20037;-81
2023/05/02 06:51:14;;;;;;;1.85;1.30;;;14.60;65.10;;;;;;5019034;28;20037;-80
2023/05/02 06:53:40;;;;;;;2.75;1.48;;;14.60;65.10;;;;;;5019852;28;20026;-81
2023/05/02 06:56:06;;;;;;;2.42;1.50;;;14.60;65.10;;;;;;5038538;28;20138;-81
2023/05/02 06:58:32;;;;;;;2.95;1.75;;;14.70;65.20;;;;;;5018952;28;20425;-81
2023/05/02 07:00:58;;;;;;;3.90;1.67;;;14.60;65.10;;;;;;5019025;28;20021;-81
2023/05/02 07:03:25;;;;;;;2.53;1.60;;;14.60;65.10;;;;;;5035108;28;20168;-80
2023/05/02 07:05:51;;;;;;;1.63;1.30;;;14.70;65.20;;;;;;5018443;28;20041;-80
2023/05/02 07:08:17;;;;;;;4.30;1.70;;;14.60;65.10;;;;;;5034849;28;20033;-80
2023/05/02 07:10:43;;;;;;;2.15;1.38;;;14.70;65.20;;;;;;5018266;28;20553;-82
2023/05/02 07:13:09;;;;;;;3.58;1.40;;;14.70;65.20;;;;;;5034866;28;20490;-79
2023/05/02 07:15:35;;;;;;;2.58;1.50;;;14.70;65.10;;;;;;5019143;28;20037;-80
2023/05/02 07:18:00;;;;;;;3.25;1.50;;;14.70;65.10;;;;;;5018318;28;20057;-82
2023/05/02 07:20:26;;;;;;;2.08;1.27;;;14.70;65.10;;;;;;4985348;28;20026;-80
2023/05/02 07:22:52;;;;;;;2.88;1.50;;;14.70;65.10;;;;;;5018078;28;20037;-80
2023/05/02 07:25:18;;;;;;;3.33;1.63;;;14.70;65.00;;;;;;5017988;28;20057;-80
2023/05/02 07:27:44;;;;;;;2.10;1.60;;;14.70;65.00;;;;;;5018908;28;20454;-79
2023/05/02 07:30:10;;;;;;;3.13;1.48;;;14.80;65.00;;;;;;5034277;28;20041;-79
2023/05/02 07:32:36;;;;;;;2.15;1.40;;;14.80;65.00;;;;;;5017607;28;20061;-81
2023/05/02 07:35:02;;;;;;;2.60;1.40;;;14.80;64.90;;;;;;5034484;28;20038;-80
2023/05/02 07:37:33;;;;;;;1.77;1.52;;;14.80;64.90;;;;;;5050813;28;20029;-79
2023/05/02 07:39:59;;;;;;;2.25;1.50;;;14.80;64.90;;;;;;5034575;28;20404;-79
2023/05/02 07:42:29;;;;;;;2.58;1.48;;;14.80;64.80;;;;;;5001469;28;20030;-80
2023/05/02 07:44:55;;;;;;;2.22;1.60;;;14.80;64.90;;;;;;5017686;28;20033;-80
2023/05/02 07:47:21;;;;;;;1.25;1.15;;;14.80;64.80;;;;;;5034421;28;20025;-78
2023/05/02 07:49:51;;;;;;;3.03;1.40;;;14.90;64.80;;;;;;5018309;28;20131;-78
2023/05/02 07:52:18;;;;;;;2.38;1.40;;;14.90;64.80;;;;;;5018244;28;20120;-78
2023/05/02 07:54:44;;;;;;;3.13;1.60;;;14.90;64.70;;;;;;5018958;28;20125;-79
2023/05/02 07:57:11;;;;;;;2.20;1.40;;;14.90;64.60;;;;;;5021519;28;20057;-78
2023/05/02 07:59:38;;;;;;;2.67;1.40;;;14.90;64.50;;;;;;5029855;28;20040;-82
2023/05/02 08:02:04;;;;;;;1.95;1.17;;;15.00;64.50;;;;;;5050741;28;20112;-79
2023/05/02 08:04:30;;;;;;;2.83;1.45;;;15.00;64.40;;;;;;5053114;28;20124;-78
2023/05/02 08:06:55;;;;;;;1.52;1.27;;;15.00;64.40;;;;;;5031176;28;20426;-78
2023/05/02 08:09:22;;;;;;;1.40;1.27;;;15.00;64.30;;;;;;5028839;28;20417;-79
2023/05/02 08:11:47;;;;;;;4.50;1.42;;;15.00;64.30;;;;;;5040556;28;20026;-79
2023/05/02 08:14:14;;;;;;;2.80;1.45;;;15.00;64.20;;;;;;5036787;28;20028;-79
2023/05/02 08:16:40;;;;;;;3.55;1.48;;;15.10;64.20;;;;;;5035688;28;20427;-78
2023/05/02 08:19:07;;;;;;;3.00;1.50;;;15.10;64.10;;;;;;5033996;28;20092;-79
2023/05/02 08:21:33;;;;;;;4.32;1.45;;;15.10;64.10;;;;;;5033499;28;20470;-81
2023/05/02 08:23:59;;;;;;;2.15;1.33;;;15.10;64.00;;;;;;5017103;28;20025;-79
2023/05/02 08:26:26;;;;;;;2.70;1.55;;;15.10;63.90;;;;;;5033283;28;20025;-79
2023/05/02 08:28:51;;;;;;;3.38;1.40;;;15.10;63.80;;;;;;5034438;28;20037;-80
2023/05/02 08:31:17;;;;;;;2.78;1.27;;;15.10;63.70;;;;;;5016638;28;20371;-78
2023/05/02 08:33:43;;;;;;;3.38;1.40;;;15.20;63.70;;;;;;5016777;28;20026;-79
2023/05/02 08:36:11;;;;;;;2.33;1.30;;;15.20;63.70;;;;;;5034773;28;20532;-78
2023/05/02 08:38:37;;;;;;;2.42;1.30;;;15.10;63.60;;;;;;5016289;28;20030;-80
2023/05/02 08:41:08;;;;;;;2.83;1.42;;;15.20;63.70;;;;;;5033357;28;20043;-78
2023/05/02 08:43:37;;;;;;;2.28;1.40;;;15.20;63.60;;;;;;5033267;28;20037;-79
2023/05/02 08:46:06;;;;;;;2.35;1.30;;;15.20;63.60;;;;;;5033856;28;20443;-80
2023/05/02 08:48:34;;;;;;;4.00;1.67;;;15.20;63.50;;;;;;5017454;28;20037;-79
2023/05/02 08:51:02;;;;;;;2.08;1.20;;;15.20;63.40;;;;;;5016558;28;20026;-81
2023/05/02 08:53:33;;;;;;;4.43;1.60;;;15.30;63.40;;;;;;5034420;28;20029;-80
2023/05/02 08:55:59;;;;;;;2.92;1.38;;;15.30;63.30;;;;;;5016766;28;20080;-78
2023/05/02 08:58:25;;;;;;;2.67;1.48;;;15.30;63.20;;;;;;5016400;28;20057;-79
2023/05/02 09:00:52;;;;;;;1.30;1.20;;;15.30;63.20;;;;;;5016042;28;20132;-79
2023/05/02 09:03:32;;;;;;;2.42;1.25;;;15.40;63.20;;;;;;5016558;28;20041;-79
2023/05/02 09:06:25;;;;;;;2.22;1.20;;;15.40;63.20;;;;;;5032577;28;20065;-79
2023/05/02 09:08:52;;;;;;;2.95;1.30;;;15.40;63.20;;;;;;5030346;28;20033;-80
2023/05/02 09:11:18;;;;;;;2.45;1.23;;;15.40;63.10;;;;;;5033297;28;20022;-80
2023/05/02 09:13:50;;;;;;;3.88;1.52;;;15.50;63.10;;;;;;5033341;28;20458;-79
2023/05/02 09:16:24;;;;;;;2.42;1.55;;;15.50;63.10;;;;;;5032802;28;20029;-79
2023/05/02 09:18:58;;;;;;;2.60;1.30;;;15.50;62.90;;;;;;5032809;28;20454;-80
2023/05/02 09:21:26;;;;;;;1.48;1.20;;;15.60;62.80;;;;;;5032802;28;20156;-80
2023/05/02 09:23:57;;;;;;;1.85;1.40;;;15.60;62.70;;;;;;5033482;28;20028;-80
2023/05/02 09:26:31;;;;;;;2.28;1.20;;;15.70;62.70;;;;;;5015810;28;20470;-80
2023/05/02 09:28:58;;;;;;;1.38;1.23;;;15.70;62.50;;;;;;5032191;28;20552;-80
2023/05/02 09:31:35;;;;;;;1.40;1.10;;;15.70;62.40;;;;;;5015865;28;20560;-79
2023/05/02 09:34:07;;;;;;;2.05;1.15;;;15.80;62.40;;;;;;5033395;28;20037;-80
2023/05/02 09:36:40;;;;;;;1.23;1.00;;;15.80;62.30;;;;;;5032435;28;20052;-80
2023/05/02 09:39:12;;;;;;;1.90;1.33;;;15.90;62.90;;;;;;5032938;28;20033;-83
2023/05/02 09:41:42;;;;;;;2.00;1.10;;;15.90;62.20;;;;;;5033933;28;20366;-82
2023/05/02 09:44:13;;;;;;;3.42;1.25;;;15.90;62.20;;;;;;5033137;28;20037;-82
2023/05/02 09:46:40;;;;;;;1.38;1.10;;;16.00;62.20;;;;;;5032652;28;20516;-80
2023/05/02 09:49:08;;;;;;;2.20;1.20;;;16.00;62.20;;;;;;5015753;28;20034;-83
2023/05/02 09:51:34;;;;;;;1.52;1.25;;;16.00;62.10;;;;;;5031969;28;20084;-81
2023/05/02 09:54:00;;;;;;;1.42;1.00;;;16.10;62.00;;;;;;5032132;28;20028;-81
2023/05/02 09:56:26;;;;;;;2.42;1.40;;;16.10;61.90;;;;;;5032286;28;20026;-79
2023/05/02 09:59:12;;;;;;;2.60;1.30;;;16.20;61.90;;;;;;5048385;28;20087;-80
2023/05/02 10:01:40;;;;;;;1.73;1.40;;;16.20;61.90;;;;;;5032550;28;20030;-80
2023/05/02 10:04:14;;;;;;;1.30;1.20;;;16.30;61.80;;;;;;5033534;28;20117;-80
2023/05/02 10:06:42;;;;;;;2.78;1.38;;;16.30;61.90;;;;;;5015549;28;20037;-80
2023/05/02 10:09:10;;;;;;;1.58;1.20;;;16.30;61.70;;;;;;5032401;28;20493;-80
2023/05/02 10:11:39;;;;;;;1.20;1.10;;;16.40;61.60;;;;;;5018249;28;20482;-80
2023/05/02 10:14:08;;;;;;;2.00;1.25;;;16.50;61.60;;;;;;5032739;28;20029;-80
2023/05/02 10:16:37;;;;;;;1.25;1.08;;;16.50;61.50;;;;;;5032058;28;20022;-81
2023/05/02 10:19:08;;;;;;;1.77;1.13;;;16.50;61.40;;;;;;5031770;28;20124;-82
2023/05/02 10:21:35;;;;;;;1.08;0.95;;;16.60;61.40;;;;;;5032927;28;20457;-81
2023/05/02 10:24:03;;;;;;;2.58;1.17;;;16.60;61.30;;;;;;5019406;28;20040;-81
2023/05/02 10:26:29;;;;;;;1.63;1.20;;;16.70;61.30;;;;;;5003299;28;20125;-80
2023/05/02 10:28:56;;;;;;;2.47;1.30;;;16.70;61.20;;;;;;5018885;28;20034;-79
2023/05/02 10:31:21;;;;;;;1.40;1.30;;;16.70;61.10;;;;;;5002967;28;20033;-80
2023/05/02 10:33:53;;;;;;;2.47;1.23;;;16.80;61.10;;;;;;5035591;28;20386;-80
2023/05/02 10:36:23;;;;;;;1.75;1.10;;;16.80;60.90;;;;;;5035714;28;20078;-79
2023/05/02 10:38:49;;;;;;;1.70;1.10;;;16.90;60.90;;;;;;5035510;28;20029;-79
2023/05/02 10:41:20;;;;;;;2.38;1.13;;;16.90;60.80;;;;;;5019169;28;20039;-79
2023/05/02 10:43:48;;;;;;;1.27;1.10;;;17.00;60.80;;;;;;5040447;28;20025;-83
2023/05/02 10:46:33;;;;;;;2.05;1.23;;;17.00;60.70;;;;;;5044006;28;20036;-80
2023/05/02 10:49:03;;;;;;;;;;;17.10;60.70;;;;;;5041494;28;20033;-80
2023/05/02 10:51:30;;;;;;;0.85;0.85;;;17.10;60.70;;;;;;5036175;28;19916;-80
2023/05/02 10:54:15;;;;;;;1.90;1.27;;;17.20;60.60;;;;;;5018999;28;20033;-80
2023/05/02 10:57:02;;;;;;;1.20;1.02;;;17.20;60.60;;;;;;5035345;28;20032;-79
2023/05/02 10:59:33;;;;;;;1.70;1.02;;;17.20;60.50;;;;;;5035463;28;20038;-79
2023/05/02 11:02:00;;;;;;;1.30;1.20;;;17.30;60.50;;;;;;5018667;28;20026;-80
2023/05/02 11:05:01;;;;;;;2.40;1.27;;;17.30;61.10;;;;;;5035888;28;20096;-81
2023/05/02 11:07:30;;;;;;;2.22;1.40;;;17.40;60.40;;;;;;5034554;28;20029;-82
2023/05/02 11:10:23;;;;;;;2.60;1.38;;;17.50;60.30;;;;;;5018174;28;20038;-81
2023/05/02 11:12:54;;;;;;;2.15;1.10;;;17.60;60.30;;;;;;5031998;28;20110;-82
2023/05/02 11:15:26;;;;;;;2.25;1.20;;;17.60;60.60;;;;;;5035620;28;20053;-82
2023/05/02 11:18:11;;;;;;;3.58;1.50;;;17.70;59.80;;;;;;5034545;28;20037;-78
2023/05/02 11:20:44;;;;;;;2.60;1.60;;;17.80;59.90;;;;;;5034968;28;20033;-79
2023/05/02 11:23:20;;;;;;;2.50;1.40;;;17.90;59.80;;;;;;5034847;28;20056;-80
2023/05/02 11:25:50;;;;;;;3.00;1.60;;;18.00;59.80;;;;;;5034776;28;20033;-80
2023/05/02 11:28:38;;;;;;;3.08;1.40;;;18.00;59.70;;;;;;5018535;28;20028;-81
2023/05/02 11:31:05;;;;;;;1.65;1.20;;;18.10;59.70;;;;;;5034717;28;20048;-81
2023/05/02 11:33:31;;;;;;;3.25;1.52;;;18.10;59.80;;;;;;5034301;28;20053;-78
2023/05/02 11:35:57;;;;;;;2.05;1.40;;;18.20;59.90;;;;;;5034866;28;20036;-80
2023/05/02 11:38:25;;;;;;;3.10;1.50;;;18.20;59.90;;;;;;5034857;28;20021;-82
2023/05/02 11:40:57;;;;;;;2.78;1.73;;;18.30;60.00;;;;;;5018942;28;20033;-82
2023/05/02 11:43:26;;;;;;;2.03;1.27;;;18.30;59.90;;;;;;5034576;28;20037;-82
2023/05/02 11:45:53;;;;;;;2.45;1.30;;;18.40;59.90;;;;;;5035109;28;20457;-81
2023/05/02 11:48:21;;;;;;;2.15;1.42;;;18.40;59.90;;;;;;5034311;28;20033;-82
2023/05/02 11:50:52;;;;;;;1.52;1.20;;;18.50;59.90;;;;;;5017887;28;20109;-82
2023/05/02 11:53:28;;;;;;;2.40;1.60;;;18.60;60.00;;;;;;5035365;28;20029;-81
2023/05/02 11:55:56;;;;;;;1.73;1.30;;;18.50;60.00;;;;;;5018093;28;20103;-79
2023/05/02 11:58:24;;;;;;;1.35;1.13;;;18.60;60.00;;;;;;5018039;28;20041;-80
2023/05/02 12:00:52;;;;;;;1.90;1.30;;;18.70;60.00;;;;;;5017993;28;20029;-81
2023/05/02 12:03:32;;;;;;;2.67;1.40;;;18.70;60.10;;;;;;5034228;28;20065;-78
2023/05/02 12:06:12;;;;;;;3.10;1.52;;;18.70;60.20;;;;;;5034613;28;20030;-78
2023/05/02 12:08:39;;;;;;;3.53;1.58;;;18.80;60.30;;;;;;5034329;28;20466;-78
2023/05/02 12:11:05;;;;;;;3.15;1.55;;;18.80;60.20;;;;;;5033791;28;20041;-79
2023/05/02 12:13:31;;;;;;;2.55;1.48;;;18.90;60.20;;;;;;5033718;28;20025;-78
2023/05/02 12:15:57;;;;;;;2.20;1.40;;;18.90;60.20;;;;;;5017868;28;20032;-78
2023/05/02 12:18:25;;;;;;;2.45;1.60;;;18.90;60.20;;;;;;5033603;28;20091;-79
2023/05/02 12:20:53;;;;;;;1.95;1.55;;;19.00;60.30;;;;;;5017920;28;20041;-78
2023/05/02 12:23:20;;;;;;;1.48;1.33;;;19.00;60.40;;;;;;5034793;28;20037;-81
2023/05/02 12:25:48;;;;;;;2.08;1.50;;;19.00;60.40;;;;;;5016697;28;20033;-82
2023/05/02 12:28:16;;;;;;;4.10;1.70;;;19.10;60.40;;;;;;5033469;28;20029;-81
2023/05/02 12:30:41;;;;;;;1.83;1.48;;;19.10;60.40;;;;;;5033514;28;20029;-81
2023/05/02 12:33:10;;;;;;;2.90;1.73;;;19.20;60.50;;;;;;5016781;28;20490;-77
2023/05/02 12:35:36;;;;;;;3.47;1.42;;;19.10;60.50;;;;;;5016963;28;20029;-79
2023/05/02 12:38:14;;;;;;;3.35;1.77;;;19.20;60.50;;;;;;5018193;28;20026;-78
2023/05/02 12:40:51;;;;;;;2.53;1.42;;;19.20;60.40;;;;;;5035805;28;20163;-79
2023/05/02 12:43:18;;;;;;;3.28;1.60;;;19.30;60.40;;;;;;5035042;28;20026;-78
2023/05/02 12:45:47;;;;;;;3.22;1.73;;;19.30;60.30;;;;;;5032815;28;20017;-80
2023/05/02 12:48:23;;;;;;;1.30;1.20;;;19.40;60.30;;;;;;5018084;28;20032;-80
2023/05/02 12:50:49;;;;;;;3.05;1.70;;;19.40;60.20;;;;;;5035349;28;20053;-80
2023/05/02 12:53:38;;;;;;;1.77;1.40;;;19.40;60.10;;;;;;5023978;28;20029;-80
2023/05/02 12:56:05;;;;;;;2.47;1.85;;;19.40;60.00;;;;;;5048206;28;20037;-81
2023/05/02 12:58:48;;;;;;;3.40;1.67;;;19.50;59.90;;;;;;5043515;28;20045;-81